KBMT/BMT METAR and TAF weather

Enter ICAO airport designator
Station Type Date Time Source
KBMT METAR 2022/12/04 04:50 UTC NOAA

KBMT 040450Z AUTO 35005KT 10SM SCT033 BKN045 20/19 A3030 RMK AO2 T02000191


Station Type Date Time Source
KBMT Decoded METAR 2022/12/04 04:50 UTC NOAA

Station name not available
Dec 03, 2022 - 11:50 PM EST / 2022.12.04 0450 UTC
Wind: from the N (350 degrees) at 6 MPH (5 KT):0
Visibility: 10 mile(s):0
Sky conditions: mostly cloudy
Temperature: 68.0 F (20.0 C)
Dew Point: 66.4 F (19.1 C)
Relative Humidity: 94%
Pressure (altimeter): 30.3 in. Hg (1026 hPa)
ob: KBMT 040450Z AUTO 35005KT 10SM SCT033 BKN045 20/19 A3030 RMK AO2 T02000191
cycle: 5

Station Type Date Time Source
KBMT TAF UTC NOAA

Error!

Example: see airport list